Flight Track Log - Related Links

Times and Time Zones

All times are in EDT time to prevent confusion due to time zone crossing. See the N302TC flight status page for this flight to view local times or setup timezone preferences in your user account.

Time Position Orientation Groundspeed Altitude Reporting Facility
EDT Latitude Longitude Course Direction KTS MPH feet Rate Location/Type
Thu 01:58:06 PM 41.6494 -73.8569 66° East 123 142 1,200  Level Boston Center
Thu 01:59:06 PM 41.6708 -73.8214 51° Northeast 123 142 2,300 1,050 Climbing Boston Center
Thu 02:00:06 PM 41.6922 -73.7828 53° Northeast 123 142 3,300 1,100 Climbing Boston Center
Thu 02:01:06 PM 41.7133 -73.7444 54° Northeast 129 148 4,500 1,000 Climbing Boston Center
Thu 02:02:06 PM 41.7431 -73.7061 44° Northeast 134 154 5,300 850 Climbing Boston Center
Thu 02:03:00 PM 41.7470 -73.6589 66° East  Level FlightAware Approximate
Thu 02:03:06 PM 41.7825 -73.7125 353° North 127 146 6,200  Level Boston Center
Thu 02:03:50 PM 41.8139 -73.7131 359° North 158 182 6,900 690 Climbing Boston Center
Thu 02:04:33 PM 41.8431 -73.7164 355° North 153 176 7,200 79 Climbing Boston Center
Thu 02:05:06 PM 41.8722 -73.7169 359° North 159 183 7,000 -129 Descending Boston Center
Thu 02:06:06 PM 41.9200 -73.7208 357° North 164 189 7,000 50 Level Boston Center
Thu 02:07:06 PM 41.9700 -73.7303 352° North 173 199 7,100  Climbing Boston Center
Thu 02:08:06 PM 42.0178 -73.7339 357° North 182 209 7,000  Descending Boston Center
Thu 02:08:36 PM 42.0428 -73.7344 359° North 179 206 7,100 200 Climbing Boston Center
Thu 02:09:06 PM 42.0700 -73.7350 359° North 182 209 7,200  Climbing Boston Center
Thu 02:09:36 PM 42.0908 -73.7411 348° North 176 203 7,100 -100 Descending Boston Center
Thu 02:10:06 PM 42.1158 -73.7414 360° North 177 204 7,100  Level Boston Center
Thu 02:10:37 PM 42.1428 -73.7419 359° North 179 206 7,100  Level Boston Center
Thu 02:11:38 PM 42.1908 -73.7486 354° North 180 207 7,100 -417 Level Boston Center
Thu 02:12:32 PM 42.2386 -73.7525 357° North 186 214 6,300 -780 Descending Boston Center
Thu 02:13:18 PM 42.2719 -73.7561 355° North 182 209 5,800 -736 Descending Boston Center
Thu 02:14:18 PM 42.3281 -73.7628 355° North 182 209 5,000 -750 Descending Boston Center
Thu 02:15:18 PM 42.3822 -73.7667 357° North 177 204 4,300 -595 Descending Boston Center
Thu 02:16:29 PM 42.4386 -73.7650 North 173 199 3,700 -409 Descending Boston Center
Thu 02:17:30 PM 42.4844 -73.7606 North 163 188 3,400 -330 Descending Boston Center
Thu 02:18:18 PM 42.5158 -73.7556 North 160 184 3,100 -425 Descending Boston Center
Thu 02:19:37 PM 42.5761 -73.7597 357° North 161 185 2,500 -429 Descending Boston Center
Thu 02:20:38 PM 42.6264 -73.7522 North 160 184 2,100 -393 Descending Boston Center

Login

Don't have an account? Register now (free) for customized features, flight alerts, and more!